Time;durP1;ratioP1;P1;durP2;ratioP2;P2;SDS_P1;SDS_P2;PMS_P1;PMS_P2;Temp;Humidity;BMP_temperature;BMP_pressure;BME280_temperature;BME280_humidity;BME280_pressure;Samples;Min_cycle;Max_cycle;Signal;HPM_P1;HPM_P2
2020/12/15 00:01:08;;;;;;;15.52;14.43;;;2.80;82.00;;;;;;4999829;29;20530;-79
2020/12/15 00:03:39;;;;;;;15.60;14.50;;;2.80;81.70;;;;;;5001831;29;20061;-80
2020/12/15 00:06:11;;;;;;;15.60;14.50;;;2.80;81.60;;;;;;5001673;29;20042;-80
2020/12/15 00:08:44;;;;;;;16.25;15.05;;;2.80;81.20;;;;;;5001689;29;20428;-79
2020/12/15 00:11:19;;;;;;;16.30;15.00;;;2.80;80.90;;;;;;5003213;29;20058;-80
2020/12/15 00:13:53;;;;;;;15.38;14.27;;;2.70;81.10;;;;;;5016687;29;20057;-79
2020/12/15 00:16:24;;;;;;;15.80;14.70;;;2.70;81.20;;;;;;5002895;29;20078;-80
2020/12/15 00:18:56;;;;;;;15.60;14.50;;;2.70;81.00;;;;;;5002504;29;20041;-79
2020/12/15 00:21:28;;;;;;;15.70;14.50;;;2.70;81.20;;;;;;5000549;29;20251;-78
2020/12/15 00:24:02;;;;;;;15.60;14.50;;;2.60;81.00;;;;;;4999458;29;20077;-78
2020/12/15 00:26:34;;;;;;;15.63;14.52;;;2.60;81.40;;;;;;5000893;29;20109;-78
2020/12/15 00:29:06;;;;;;;15.80;14.70;;;2.60;81.90;;;;;;5001547;29;20046;-79
2020/12/15 00:31:38;;;;;;;14.65;13.55;;;2.50;82.50;;;;;;5001053;29;20060;-79
2020/12/15 00:34:11;;;;;;;14.73;13.68;;;2.50;82.10;;;;;;5002714;29;20046;-79
2020/12/15 00:36:43;;;;;;;14.63;13.63;;;2.50;81.80;;;;;;5000367;29;20056;-78
2020/12/15 00:39:15;;;;;;;14.55;13.55;;;2.50;82.00;;;;;;5001533;29;20098;-80
2020/12/15 00:41:48;;;;;;;14.23;13.23;;;2.50;82.10;;;;;;5001199;29;20141;-79
2020/12/15 00:44:20;;;;;;;14.60;13.60;;;2.50;82.70;;;;;;5000110;29;20054;-78
2020/12/15 00:46:51;;;;;;;14.80;13.80;;;2.50;83.90;;;;;;5000821;29;20054;-78
2020/12/15 00:49:26;;;;;;;14.90;13.90;;;2.50;84.90;;;;;;5014842;29;20052;-78
2020/12/15 00:51:59;;;;;;;14.73;13.73;;;2.60;83.80;;;;;;5000392;29;20049;-79
2020/12/15 00:54:30;;;;;;;15.13;14.13;;;2.60;83.80;;;;;;5001425;29;20087;-78
2020/12/15 00:57:04;;;;;;;14.82;13.82;;;2.60;83.40;;;;;;4999328;29;20114;-80
2020/12/15 00:59:36;;;;;;;15.02;14.02;;;2.70;83.30;;;;;;5000163;29;20046;-78
2020/12/15 01:02:07;;;;;;;15.57;14.48;;;2.70;82.80;;;;;;5000672;29;20050;-78
2020/12/15 01:04:39;;;;;;;14.98;13.98;;;2.60;81.80;;;;;;4984508;29;20058;-80
2020/12/15 01:07:12;;;;;;;15.40;14.30;;;2.60;81.60;;;;;;5000931;29;20045;-80
2020/12/15 01:09:44;;;;;;;15.02;13.93;;;2.60;81.30;;;;;;5004833;29;20054;-80
2020/12/15 01:12:16;;;;;;;16.00;14.90;;;2.60;81.20;;;;;;5019179;29;20145;-80
2020/12/15 01:14:49;;;;;;;15.48;14.38;;;2.60;81.10;;;;;;5006664;29;20135;-80
2020/12/15 01:17:25;;;;;;;15.43;14.32;;;2.60;81.00;;;;;;5002570;29;20049;-79
2020/12/15 01:19:57;;;;;;;15.45;14.27;;;2.60;80.90;;;;;;4977062;29;20054;-79
2020/12/15 01:22:28;;;;;;;14.98;13.77;;;2.70;80.80;;;;;;5003278;29;20049;-80
2020/12/15 01:25:00;;;;;;;15.77;14.68;;;2.70;80.80;;;;;;5004500;29;20520;-79
2020/12/15 01:27:46;;;;;;;15.55;14.45;;;2.70;80.70;;;;;;5006029;29;20735;-82
2020/12/15 01:30:22;;;;;;;15.52;14.43;;;2.70;80.60;;;;;;5012164;29;20122;-83
2020/12/15 01:33:15;;;;;;;15.30;14.20;;;2.70;80.40;;;;;;5007649;29;20057;-82
2020/12/15 01:36:05;;;;;;;15.27;14.18;;;2.70;80.60;;;;;;5006247;29;20136;-82
2020/12/15 01:38:49;;;;;;;14.52;13.52;;;2.60;80.40;;;;;;5006423;29;20988;-82
2020/12/15 01:45:09;;;;;;;14.63;13.52;;;2.60;80.90;;;;;;5004667;29;20053;-83
2020/12/15 01:47:41;;;;;;;14.27;13.27;;;2.60;82.10;;;;;;5018223;29;20050;-80
2020/12/15 01:50:14;;;;;;;15.55;14.35;;;2.60;82.40;;;;;;5003596;29;20041;-82
2020/12/15 01:52:53;;;;;;;15.73;14.60;;;2.60;82.00;;;;;;5004568;29;20445;-83
2020/12/15 01:55:25;;;;;;;15.20;14.00;;;2.60;81.70;;;;;;5004676;29;20056;-81
2020/12/15 01:58:08;;;;;;;14.77;13.77;;;2.60;81.50;;;;;;5010655;29;20093;-81
2020/12/15 02:00:43;;;;;;;14.82;13.73;;;2.70;81.60;;;;;;5006080;29;20098;-81
2020/12/15 02:03:20;;;;;;;14.55;13.48;;;2.70;81.40;;;;;;5007786;29;20061;-80
2020/12/15 02:06:13;;;;;;;14.60;13.40;;;2.70;81.40;;;;;;5004869;29;20061;-79
2020/12/15 02:09:04;;;;;;;14.50;13.40;;;2.70;81.80;;;;;;5000765;29;20054;-80
2020/12/15 02:11:52;;;;;;;14.82;13.82;;;2.70;81.90;;;;;;5001350;29;20120;-79
2020/12/15 02:14:25;;;;;;;14.70;13.70;;;2.70;81.90;;;;;;5002701;29;20601;-79
2020/12/15 02:16:57;;;;;;;15.18;14.07;;;2.70;81.70;;;;;;5003366;29;20052;-80
2020/12/15 02:20:00;;;;;;;16.35;15.02;;;2.60;81.50;;;;;;5001810;29;20605;-79
2020/12/15 02:22:34;;;;;;;14.88;13.88;;;2.60;81.70;;;;;;5002255;29;20145;-79
2020/12/15 02:25:07;;;;;;;14.88;13.88;;;2.50;82.60;;;;;;5017238;29;20053;-79
2020/12/15 02:27:40;;;;;;;15.13;14.13;;;2.50;82.70;;;;;;5000890;29;20076;-79
2020/12/15 02:30:12;;;;;;;15.57;14.48;;;2.40;82.80;;;;;;5002499;29;20505;-80
2020/12/15 02:32:47;;;;;;;14.77;13.77;;;2.30;83.60;;;;;;5018139;29;20058;-78
2020/12/15 02:35:23;;;;;;;14.73;13.73;;;2.40;84.40;;;;;;4986909;29;20746;-78
2020/12/15 02:37:55;;;;;;;14.93;13.93;;;2.40;84.90;;;;;;5001901;29;20049;-78
2020/12/15 02:40:31;;;;;;;15.07;14.07;;;2.50;84.60;;;;;;5015407;29;20045;-79
2020/12/15 02:43:06;;;;;;;15.45;14.35;;;2.60;84.50;;;;;;5016358;29;20046;-78
2020/12/15 02:45:40;;;;;;;14.73;13.63;;;2.60;84.70;;;;;;4984768;29;20083;-78
2020/12/15 02:48:17;;;;;;;14.70;13.70;;;2.70;84.30;;;;;;5016640;29;20109;-79
2020/12/15 02:50:48;;;;;;;14.50;13.50;;;2.70;84.70;;;;;;5000887;29;20080;-79
2020/12/15 02:53:32;;;;;;;15.10;14.10;;;2.70;84.60;;;;;;4993584;29;20054;-81
2020/12/15 02:56:07;;;;;;;14.95;13.95;;;2.80;84.40;;;;;;5002733;29;20046;-80
2020/12/15 02:58:49;;;;;;;15.30;14.30;;;2.90;84.40;;;;;;5003230;29;20125;-80
2020/12/15 03:01:21;;;;;;;15.38;14.38;;;2.90;84.40;;;;;;5001792;29;20144;-80
2020/12/15 03:03:58;;;;;;;15.65;14.63;;;3.00;83.90;;;;;;5016760;29;20052;-80
2020/12/15 03:06:39;;;;;;;14.90;13.90;;;3.10;83.30;;;;;;5015567;29;20540;-81
2020/12/15 03:09:16;;;;;;;15.48;14.48;;;3.20;82.90;;;;;;5003040;29;20056;-79
2020/12/15 03:11:59;;;;;;;15.32;14.27;;;3.30;82.50;;;;;;5016865;29;20630;-81
2020/12/15 03:14:42;;;;;;;15.60;14.52;;;3.30;82.20;;;;;;5015975;29;20049;-80
2020/12/15 03:17:18;;;;;;;15.63;14.52;;;3.40;82.00;;;;;;5002422;29;20517;-81
2020/12/15 03:19:51;;;;;;;15.30;14.30;;;3.40;81.90;;;;;;5002248;29;20046;-81
2020/12/15 03:22:22;;;;;;;15.00;14.00;;;3.40;81.90;;;;;;4987221;29;20052;-81
2020/12/15 03:25:01;;;;;;;15.05;14.05;;;3.50;81.90;;;;;;5002552;29;20049;-81
2020/12/15 03:27:40;;;;;;;15.63;14.60;;;3.50;81.60;;;;;;4986912;29;20705;-80
2020/12/15 03:30:16;;;;;;;15.18;14.18;;;3.50;80.80;;;;;;4999558;29;20776;-80
2020/12/15 03:32:48;;;;;;;15.15;14.15;;;3.30;81.00;;;;;;5000783;29;20060;-80
2020/12/15 03:35:20;;;;;;;14.82;13.82;;;3.20;81.70;;;;;;5016435;29;20050;-81
2020/12/15 03:37:52;;;;;;;14.70;13.70;;;3.20;81.70;;;;;;4977571;29;20046;-79
2020/12/15 03:40:27;;;;;;;15.32;14.32;;;3.30;82.10;;;;;;5016355;29;20046;-80
2020/12/15 03:43:19;;;;;;;15.15;14.15;;;3.30;81.60;;;;;;5004424;29;20046;-80
2020/12/15 03:46:07;;;;;;;14.90;13.90;;;3.40;81.20;;;;;;4988132;29;20057;-80
2020/12/15 03:48:38;;;;;;;15.15;14.15;;;3.40;81.10;;;;;;5002716;29;20556;-81
2020/12/15 03:51:12;;;;;;;15.40;14.40;;;3.40;80.70;;;;;;4986291;29;20042;-80
2020/12/15 03:54:19;;;;;;;14.57;13.57;;;3.40;81.10;;;;;;4977347;29;20413;-80
2020/12/15 03:57:13;;;;;;;16.58;14.90;;;3.40;81.10;;;;;;4988326;29;20058;-80
2020/12/15 04:00:11;;;;;;;15.27;14.27;;;3.40;81.10;;;;;;5000956;29;20045;-80
2020/12/15 04:02:43;;;;;;;15.40;14.40;;;3.30;81.10;;;;;;5000980;29;20046;-80
2020/12/15 04:05:29;;;;;;;15.63;14.55;;;3.10;81.30;;;;;;4999678;29;20084;-80
2020/12/15 04:08:04;;;;;;;14.85;13.85;;;3.10;81.70;;;;;;4983213;29;20604;-80
2020/12/15 04:10:36;;;;;;;15.45;14.40;;;3.10;81.80;;;;;;5013252;29;20078;-81
2020/12/15 04:13:08;;;;;;;15.05;14.05;;;3.10;81.50;;;;;;5003739;29;20497;-81
2020/12/15 04:15:46;;;;;;;14.98;13.93;;;3.10;81.20;;;;;;5000177;29;20046;-81
2020/12/15 04:18:22;;;;;;;14.90;13.90;;;3.20;81.30;;;;;;5016373;29;20065;-80
2020/12/15 04:20:54;;;;;;;14.43;13.43;;;3.20;81.60;;;;;;4999915;29;20056;-81
2020/12/15 04:23:26;;;;;;;14.13;13.13;;;3.20;81.90;;;;;;4999713;29;20555;-81
2020/12/15 04:26:01;;;;;;;14.82;13.82;;;3.20;81.90;;;;;;5000627;29;20049;-80
2020/12/15 04:28:42;;;;;;;14.88;13.88;;;3.20;82.00;;;;;;5003498;29;20046;-81
2020/12/15 04:31:13;;;;;;;14.75;13.75;;;3.30;81.90;;;;;;5014610;29;20165;-80
2020/12/15 04:33:45;;;;;;;14.48;13.48;;;3.20;81.60;;;;;;4985719;29;20059;-80
2020/12/15 04:36:17;;;;;;;14.63;13.63;;;3.30;81.40;;;;;;4999657;29;20125;-80
2020/12/15 04:38:49;;;;;;;15.25;14.15;;;3.30;81.20;;;;;;5001488;29;20046;-80
2020/12/15 04:41:35;;;;;;;14.65;13.63;;;3.30;81.10;;;;;;4985789;29;20110;-80
2020/12/15 04:44:09;;;;;;;14.70;13.70;;;3.30;80.80;;;;;;5021588;29;20056;-80
2020/12/15 04:47:14;;;;;;;15.18;14.10;;;3.30;80.80;;;;;;5021788;29;20054;-80
2020/12/15 04:50:00;;;;;;;14.52;13.52;;;3.40;80.60;;;;;;5022542;29;20061;-80
2020/12/15 04:52:56;;;;;;;14.75;13.75;;;3.30;80.50;;;;;;5003373;29;20795;-80
2020/12/15 04:55:49;;;;;;;14.70;13.70;;;3.30;80.60;;;;;;5008786;29;20080;-81
2020/12/15 04:58:24;;;;;;;14.48;13.48;;;3.30;80.80;;;;;;5026189;29;20080;-80
2020/12/15 05:00:59;;;;;;;14.98;13.88;;;3.30;80.80;;;;;;4994077;29;20521;-80
2020/12/15 05:03:52;;;;;;;15.23;14.02;;;3.30;80.80;;;;;;5009302;29;20625;-81
2020/12/15 05:06:26;;;;;;;15.02;14.02;;;3.30;80.70;;;;;;4994354;29;20045;-80
2020/12/15 05:09:03;;;;;;;15.05;14.05;;;3.30;80.80;;;;;;5021580;29;20046;-81
2020/12/15 05:11:35;;;;;;;14.82;13.73;;;3.30;80.90;;;;;;5005223;29;20042;-79
2020/12/15 05:14:29;;;;;;;15.00;14.00;;;3.30;81.30;;;;;;5005806;29;20046;-81
2020/12/15 05:17:00;;;;;;;15.00;14.00;;;3.30;80.90;;;;;;4999025;29;20428;-80
2020/12/15 05:19:53;;;;;;;15.20;14.20;;;3.30;80.90;;;;;;5005653;29;20061;-81
2020/12/15 05:22:53;;;;;;;15.23;14.23;;;3.30;81.30;;;;;;5019750;29;20189;-79
2020/12/15 05:25:36;;;;;;;15.40;14.40;;;3.30;81.20;;;;;;5020296;29;20045;-80
2020/12/15 05:28:15;;;;;;;14.98;13.98;;;3.30;81.20;;;;;;4992322;29;20050;-80
2020/12/15 05:31:00;;;;;;;15.07;13.98;;;3.30;81.10;;;;;;4992495;29;20098;-79
2020/12/15 05:33:52;;;;;;;14.23;13.23;;;3.30;80.70;;;;;;5008728;29;20398;-81
2020/12/15 05:36:55;;;;;;;15.05;13.95;;;3.30;80.80;;;;;;5007912;29;20050;-81
2020/12/15 05:39:46;;;;;;;14.52;13.52;;;3.30;80.60;;;;;;5007503;29;20592;-82
2020/12/15 05:42:27;;;;;;;14.57;13.57;;;3.30;80.50;;;;;;5000791;29;20437;-81
2020/12/15 05:45:02;;;;;;;14.23;13.23;;;3.30;80.70;;;;;;5008645;29;20157;-81
2020/12/15 05:47:39;;;;;;;14.30;13.30;;;3.30;80.50;;;;;;4990827;29;20057;-82
2020/12/15 05:50:22;;;;;;;14.90;13.80;;;3.30;80.40;;;;;;5019550;29;20074;-81
2020/12/15 05:53:02;;;;;;;14.63;13.63;;;3.20;80.30;;;;;;5006676;29;20049;-82
2020/12/15 05:55:34;;;;;;;15.10;14.00;;;3.20;80.30;;;;;;5005655;29;20062;-83
2020/12/15 05:58:06;;;;;;;14.80;13.70;;;3.20;80.00;;;;;;4989414;29;20054;-82
2020/12/15 06:00:37;;;;;;;14.55;13.55;;;3.20;79.80;;;;;;5004438;29;20110;-81
2020/12/15 06:03:09;;;;;;;14.45;13.15;;;3.20;79.80;;;;;;5014527;29;20037;-81
2020/12/15 06:05:40;;;;;;;14.60;13.50;;;3.10;79.80;;;;;;5004257;29;20050;-81
2020/12/15 06:08:14;;;;;;;14.15;13.05;;;3.10;79.80;;;;;;5005291;29;20045;-81
2020/12/15 06:10:52;;;;;;;13.63;12.63;;;3.10;80.00;;;;;;5002945;29;20091;-78
2020/12/15 06:13:23;;;;;;;14.02;13.02;;;3.10;81.10;;;;;;5004826;29;20046;-79
2020/12/15 06:15:54;;;;;;;13.77;12.77;;;3.10;80.60;;;;;;5002519;29;20083;-78
2020/12/15 06:18:26;;;;;;;14.23;13.23;;;3.10;80.70;;;;;;5003625;29;20073;-79
2020/12/15 06:20:59;;;;;;;14.00;13.00;;;3.10;81.00;;;;;;5002187;29;20600;-77
2020/12/15 06:23:31;;;;;;;13.90;12.90;;;3.10;80.90;;;;;;5004567;29;20069;-77
2020/12/15 06:26:02;;;;;;;14.00;13.00;;;3.10;81.00;;;;;;5002273;29;20102;-81
2020/12/15 06:28:34;;;;;;;14.35;13.35;;;3.10;81.60;;;;;;5002563;29;20102;-79
2020/12/15 06:31:05;;;;;;;13.88;12.88;;;3.00;81.90;;;;;;5001637;29;20520;-78
2020/12/15 06:33:37;;;;;;;14.02;13.02;;;3.00;82.10;;;;;;5000784;29;20042;-79
2020/12/15 06:36:08;;;;;;;14.15;13.15;;;3.00;81.80;;;;;;5001555;29;20058;-79
2020/12/15 06:38:40;;;;;;;14.25;13.20;;;3.00;81.50;;;;;;5002247;29;20050;-78
2020/12/15 06:41:20;;;;;;;14.70;13.60;;;3.00;81.60;;;;;;4998859;29;20156;-79
2020/12/15 06:44:03;;;;;;;14.07;13.07;;;3.00;81.60;;;;;;4984790;29;20054;-78
2020/12/15 06:46:35;;;;;;;13.90;12.90;;;3.00;81.80;;;;;;5001035;29;20089;-78
2020/12/15 06:49:10;;;;;;;13.90;12.90;;;3.00;82.00;;;;;;5000132;29;20041;-78
2020/12/15 06:51:41;;;;;;;13.85;12.85;;;3.00;82.10;;;;;;4999744;29;20461;-76
2020/12/15 06:54:13;;;;;;;12.75;11.85;;;3.00;82.00;;;;;;5001643;29;20038;-80
2020/12/15 06:57:02;;;;;;;13.23;12.23;;;3.00;81.60;;;;;;5015667;29;20049;-79
2020/12/15 06:59:39;;;;;;;13.10;12.20;;;3.00;81.50;;;;;;5001878;29;20053;-77
2020/12/15 07:02:15;;;;;;;13.13;12.20;;;3.00;81.80;;;;;;5001986;29;20073;-78
2020/12/15 07:04:48;;;;;;;16.65;15.25;;;3.00;81.70;;;;;;5016134;29;20201;-78
2020/12/15 07:07:19;;;;;;;14.93;13.73;;;3.00;81.50;;;;;;4993250;29;20536;-77
2020/12/15 07:09:57;;;;;;;14.25;13.05;;;3.00;81.40;;;;;;5002590;29;20042;-76
2020/12/15 07:12:29;;;;;;;13.48;12.38;;;3.00;81.60;;;;;;5001661;29;20509;-76
2020/12/15 07:15:03;;;;;;;12.90;12.00;;;3.00;81.40;;;;;;5001748;29;20398;-78
2020/12/15 07:17:36;;;;;;;13.02;12.13;;;3.00;81.30;;;;;;5001068;29;20038;-76
2020/12/15 07:20:08;;;;;;;12.77;11.88;;;3.00;81.50;;;;;;4999292;29;20785;-76
2020/12/15 07:22:40;;;;;;;13.23;12.32;;;2.90;81.80;;;;;;5002791;29;20046;-76
2020/12/15 07:25:13;;;;;;;13.10;12.10;;;3.00;81.90;;;;;;4999707;29;20058;-77
2020/12/15 07:27:45;;;;;;;12.70;11.70;;;2.90;81.40;;;;;;4999430;29;20045;-75
2020/12/15 07:30:19;;;;;;;12.27;11.38;;;3.00;81.50;;;;;;5001997;29;20058;-75
2020/12/15 07:32:50;;;;;;;12.57;11.68;;;3.00;81.20;;;;;;5002518;29;20361;-76
2020/12/15 07:35:24;;;;;;;12.40;11.50;;;3.00;81.00;;;;;;5002486;29;20042;-78
2020/12/15 07:38:02;;;;;;;12.68;11.77;;;3.00;81.30;;;;;;5001982;29;20090;-77
2020/12/15 07:40:33;;;;;;;12.98;12.07;;;3.00;81.60;;;;;;5001918;29;20050;-76
2020/12/15 07:43:06;;;;;;;13.30;12.30;;;2.90;81.50;;;;;;5001391;29;20464;-76
2020/12/15 07:45:38;;;;;;;14.30;12.43;;;2.90;81.10;;;;;;5001826;29;20106;-77
2020/12/15 07:48:09;;;;;;;12.02;11.18;;;2.90;81.40;;;;;;5016173;29;20535;-76
2020/12/15 07:50:41;;;;;;;17.55;16.15;;;2.90;81.30;;;;;;4985170;29;20394;-76
2020/12/15 07:53:12;;;;;;;19.10;17.55;;;2.90;81.50;;;;;;5002053;29;20038;-77
2020/12/15 07:55:44;;;;;;;19.25;17.70;;;2.90;81.30;;;;;;5001306;29;20054;-77
2020/12/15 07:58:16;;;;;;;18.00;16.60;;;2.90;80.80;;;;;;5001411;29;20041;-77
2020/12/15 08:00:50;;;;;;;16.60;15.25;;;2.90;80.60;;;;;;5015267;29;20123;-76
2020/12/15 08:03:21;;;;;;;14.55;13.48;;;2.90;80.70;;;;;;5001419;29;20124;-76
2020/12/15 08:05:53;;;;;;;13.85;12.75;;;2.90;81.00;;;;;;5001327;29;20107;-76
2020/12/15 08:08:24;;;;;;;13.55;12.45;;;3.00;80.90;;;;;;5001602;29;20470;-79
2020/12/15 08:10:56;;;;;;;12.50;11.50;;;3.00;81.10;;;;;;4999649;29;20435;-76
2020/12/15 08:13:28;;;;;;;13.30;12.20;;;3.00;81.30;;;;;;5000611;29;20133;-76
2020/12/15 08:16:00;;;;;;;17.95;16.45;;;3.00;81.60;;;;;;5000084;29;20541;-77
2020/12/15 08:18:32;;;;;;;15.75;14.45;;;3.00;81.00;;;;;;4999565;29;20058;-77
2020/12/15 08:21:06;;;;;;;17.45;16.05;;;3.10;80.60;;;;;;5001835;29;20050;-76
2020/12/15 08:23:54;;;;;;;15.60;14.30;;;3.10;80.50;;;;;;4998967;29;20642;-76
2020/12/15 08:26:26;;;;;;;15.57;14.27;;;3.10;79.90;;;;;;4998717;29;20049;-77
2020/12/15 08:29:08;;;;;;;13.30;12.20;;;3.10;80.20;;;;;;5000820;29;20157;-76
2020/12/15 08:31:44;;;;;;;12.82;11.80;;;3.10;80.60;;;;;;5000742;29;20046;-76
2020/12/15 08:34:18;;;;;;;13.13;12.18;;;3.00;80.50;;;;;;4999798;29;20065;-76
2020/12/15 08:36:53;;;;;;;13.52;12.52;;;3.00;81.10;;;;;;5000580;29;20042;-75
2020/12/15 08:39:30;;;;;;;13.25;12.25;;;3.00;81.30;;;;;;4999813;29;20128;-77
2020/12/15 08:42:02;;;;;;;14.07;12.98;;;3.10;81.40;;;;;;4987558;29;20703;-76
2020/12/15 08:44:35;;;;;;;14.63;13.50;;;3.10;81.70;;;;;;5001441;29;20509;-76
2020/12/15 08:47:07;;;;;;;13.70;12.70;;;3.20;81.70;;;;;;4984556;29;20748;-75
2020/12/15 08:49:38;;;;;;;17.65;16.08;;;3.30;81.70;;;;;;5000281;29;20056;-77
2020/12/15 08:52:10;;;;;;;16.27;15.07;;;3.40;81.70;;;;;;5000073;29;20050;-74
2020/12/15 08:54:42;;;;;;;23.25;20.95;;;3.60;81.70;;;;;;5000474;29;20046;-76
2020/12/15 08:57:15;;;;;;;16.92;15.52;;;3.60;81.80;;;;;;4999245;29;20102;-76
2020/12/15 08:59:46;;;;;;;20.05;18.23;;;3.70;82.00;;;;;;4999449;29;20547;-77
2020/12/15 09:02:21;;;;;;;17.35;15.95;;;3.80;82.10;;;;;;4983708;29;20057;-76
2020/12/15 09:05:03;;;;;;;15.50;14.20;;;3.90;81.10;;;;;;5000911;29;20050;-76
2020/12/15 09:07:35;;;;;;;14.70;13.50;;;4.00;80.90;;;;;;4999770;29;20134;-76
2020/12/15 09:10:16;;;;;;;14.65;13.40;;;4.10;81.30;;;;;;4998892;29;20050;-78
2020/12/15 09:12:48;;;;;;;15.20;14.00;;;4.20;81.60;;;;;;4998953;29;20077;-76
2020/12/15 09:15:19;;;;;;;15.63;14.32;;;4.30;81.50;;;;;;4999683;29;20077;-76
2020/12/15 09:17:51;;;;;;;16.08;14.77;;;4.30;81.00;;;;;;5001028;29;20046;-76
2020/12/15 09:20:27;;;;;;;15.25;14.05;;;4.50;80.80;;;;;;4998581;29;20133;-77
2020/12/15 09:22:59;;;;;;;15.50;14.30;;;4.60;81.90;;;;;;4999444;29;20056;-77
2020/12/15 09:25:31;;;;;;;14.52;13.43;;;4.80;81.80;;;;;;5000147;29;20045;-78
2020/12/15 09:28:03;;;;;;;14.98;13.88;;;4.90;80.80;;;;;;5000979;29;20042;-76
2020/12/15 09:30:34;;;;;;;14.93;13.73;;;5.00;80.10;;;;;;5003455;29;20053;-76
2020/12/15 09:33:09;;;;;;;14.32;13.23;;;5.10;80.10;;;;;;5002513;29;20098;-77
2020/12/15 09:35:40;;;;;;;14.38;13.27;;;5.20;80.40;;;;;;5001960;29;20073;-76
2020/12/15 09:38:12;;;;;;;14.77;13.57;;;5.30;80.90;;;;;;4987397;29;20049;-75
2020/12/15 09:40:44;;;;;;;15.13;13.85;;;5.40;80.60;;;;;;5002214;29;20126;-76
2020/12/15 09:43:16;;;;;;;14.43;13.32;;;5.50;78.30;;;;;;5003502;29;20057;-76
2020/12/15 09:45:54;;;;;;;13.85;12.85;;;5.40;77.70;;;;;;5003140;29;20403;-76
2020/12/15 09:48:26;;;;;;;13.82;12.82;;;5.40;79.20;;;;;;5001954;29;20054;-76
2020/12/15 09:50:58;;;;;;;14.20;13.18;;;5.40;79.00;;;;;;5002928;29;20053;-76
2020/12/15 09:53:30;;;;;;;13.48;12.48;;;5.30;77.50;;;;;;5002502;29;20526;-76
2020/12/15 09:56:02;;;;;;;13.68;12.57;;;5.20;78.20;;;;;;5003151;29;20056;-76
2020/12/15 09:58:49;;;;;;;13.43;12.43;;;5.20;78.50;;;;;;5003346;29;20128;-76
2020/12/15 10:01:25;;;;;;;13.68;12.68;;;5.20;78.70;;;;;;5002919;29;20052;-76
2020/12/15 10:03:56;;;;;;;13.60;12.57;;;5.20;79.30;;;;;;5003139;29;20465;-76
2020/12/15 10:06:28;;;;;;;13.20;12.20;;;5.10;79.70;;;;;;5001516;29;20069;-76
2020/12/15 10:09:00;;;;;;;13.07;12.07;;;5.20;79.40;;;;;;5003276;29;20053;-76
2020/12/15 10:11:32;;;;;;;13.18;12.18;;;5.10;79.70;;;;;;5002303;29;20053;-76
2020/12/15 10:14:04;;;;;;;12.98;12.07;;;5.20;79.40;;;;;;5003713;29;20050;-76
2020/12/15 10:16:36;;;;;;;13.35;12.35;;;5.20;79.50;;;;;;5015748;29;20058;-76
2020/12/15 10:19:08;;;;;;;13.15;12.15;;;5.10;79.70;;;;;;5002494;29;20125;-76
2020/12/15 10:21:40;;;;;;;13.20;12.20;;;5.10;79.60;;;;;;5002882;29;20505;-76
2020/12/15 10:24:11;;;;;;;12.90;11.90;;;5.10;79.80;;;;;;5003390;29;20053;-78
2020/12/15 10:26:43;;;;;;;12.52;11.63;;;5.10;79.70;;;;;;5001344;29;20115;-76
2020/12/15 10:29:14;;;;;;;12.57;11.68;;;5.20;79.90;;;;;;5002550;29;20136;-76
2020/12/15 10:31:49;;;;;;;13.48;12.48;;;5.10;80.10;;;;;;5000736;29;20050;-77
2020/12/15 10:34:20;;;;;;;14.10;13.00;;;5.20;79.70;;;;;;5016062;29;20588;-76
2020/12/15 10:36:54;;;;;;;13.38;12.38;;;5.20;79.60;;;;;;5002587;29;20582;-76
2020/12/15 10:39:25;;;;;;;14.00;12.90;;;5.20;79.20;;;;;;5002417;29;20064;-76
2020/12/15 10:41:57;;;;;;;14.38;13.20;;;5.20;79.70;;;;;;5001519;29;20512;-76
2020/12/15 10:44:28;;;;;;;14.80;13.50;;;5.20;79.70;;;;;;4999228;29;20178;-76
2020/12/15 10:47:01;;;;;;;15.35;13.90;;;5.30;79.80;;;;;;5013009;29;20584;-78
2020/12/15 10:49:32;;;;;;;14.75;13.55;;;5.40;79.60;;;;;;4985847;29;20083;-77
2020/12/15 10:52:04;;;;;;;14.25;13.05;;;5.40;79.60;;;;;;4998716;29;20053;-76
2020/12/15 10:54:37;;;;;;;14.27;13.07;;;5.40;79.80;;;;;;5001047;29;20050;-76
2020/12/15 10:57:08;;;;;;;14.05;12.95;;;5.40;80.10;;;;;;5001016;29;20410;-77
2020/12/15 10:59:40;;;;;;;14.07;12.88;;;5.50;80.40;;;;;;4995891;29;20049;-75
2020/12/15 11:02:12;;;;;;;14.68;13.50;;;5.40;80.50;;;;;;5000615;29;20766;-77
2020/12/15 11:04:44;;;;;;;15.32;14.02;;;5.40;80.30;;;;;;5000158;29;20041;-76
2020/12/15 11:07:16;;;;;;;12.95;11.85;;;5.50;80.40;;;;;;5001217;29;20073;-76
2020/12/15 11:09:47;;;;;;;14.98;13.68;;;5.50;79.90;;;;;;4999392;29;20466;-76
2020/12/15 11:12:19;;;;;;;13.52;12.43;;;5.50;79.70;;;;;;4999765;29;20054;-78
2020/12/15 11:14:50;;;;;;;15.43;14.20;;;5.50;79.10;;;;;;5001100;29;20049;-76
2020/12/15 11:17:21;;;;;;;14.70;13.40;;;5.50;79.20;;;;;;4997874;29;20470;-77
2020/12/15 11:19:53;;;;;;;14.98;13.63;;;5.50;79.60;;;;;;4999514;29;20109;-77
2020/12/15 11:22:25;;;;;;;14.02;12.93;;;5.60;79.10;;;;;;4983332;29;20506;-77
2020/12/15 11:24:56;;;;;;;14.48;13.27;;;5.60;79.20;;;;;;5000695;29;20117;-77
2020/12/15 11:27:28;;;;;;;14.32;13.23;;;5.60;79.30;;;;;;5013481;29;20042;-77
2020/12/15 11:29:59;;;;;;;14.95;13.65;;;5.60;79.60;;;;;;5000946;29;20102;-76
2020/12/15 11:32:35;;;;;;;14.13;13.02;;;5.60;79.50;;;;;;5000498;29;20064;-78
2020/12/15 11:35:07;;;;;;;14.15;13.15;;;5.60;80.10;;;;;;5001321;29;20038;-80
2020/12/15 11:37:42;;;;;;;13.88;12.82;;;5.70;79.70;;;;;;4999437;29;20485;-79
2020/12/15 11:40:14;;;;;;;13.95;12.93;;;5.70;80.10;;;;;;4998691;29;20106;-78
2020/12/15 11:42:45;;;;;;;13.25;12.20;;;5.80;80.00;;;;;;4999333;29;20523;-78
2020/12/15 11:45:17;;;;;;;13.57;12.57;;;5.80;79.90;;;;;;4982788;29;20058;-77
2020/12/15 11:47:48;;;;;;;14.73;13.50;;;5.80;80.00;;;;;;4996404;29;20114;-78
2020/12/15 11:50:22;;;;;;;14.52;13.10;;;5.80;79.50;;;;;;4997446;29;20110;-79
2020/12/15 11:52:55;;;;;;;13.20;12.20;;;5.80;79.80;;;;;;4999110;29;20065;-77
2020/12/15 11:55:27;;;;;;;14.23;13.13;;;5.80;79.20;;;;;;5000340;29;20099;-77
2020/12/15 11:57:59;;;;;;;13.80;12.80;;;5.70;78.80;;;;;;4998171;29;20126;-80
2020/12/15 12:00:30;;;;;;;14.25;13.13;;;5.70;79.00;;;;;;4998808;29;20061;-77
2020/12/15 12:03:02;;;;;;;14.68;13.57;;;5.80;80.00;;;;;;5000360;29;20042;-78
2020/12/15 12:05:33;;;;;;;14.57;13.38;;;5.80;78.70;;;;;;4997886;29;20050;-76
2020/12/15 12:08:05;;;;;;;15.00;13.73;;;5.70;78.90;;;;;;4997716;29;20090;-75
2020/12/15 12:10:36;;;;;;;14.93;13.63;;;5.80;79.10;;;;;;5000364;29;20050;-78
2020/12/15 12:13:08;;;;;;;15.43;14.25;;;5.90;79.80;;;;;;4996776;29;20997;-76
2020/12/15 12:15:39;;;;;;;14.48;13.38;;;6.00;79.30;;;;;;4999669;29;20066;-75
2020/12/15 12:18:11;;;;;;;14.57;13.48;;;6.10;78.50;;;;;;4999598;29;20052;-75
2020/12/15 12:20:42;;;;;;;14.02;12.93;;;6.20;78.30;;;;;;4984399;29;20091;-78
2020/12/15 12:23:14;;;;;;;14.75;13.55;;;6.30;79.30;;;;;;5000866;29;20139;-75
2020/12/15 12:25:45;;;;;;;15.82;14.60;;;6.40;78.20;;;;;;4998772;29;20049;-78
2020/12/15 12:28:17;;;;;;;15.13;13.85;;;6.50;77.50;;;;;;4998634;29;20057;-75
2020/12/15 12:30:48;;;;;;;14.75;13.65;;;6.60;78.10;;;;;;4997458;29;20846;-76
2020/12/15 12:33:20;;;;;;;15.27;14.02;;;6.60;78.10;;;;;;4999813;29;20049;-76
2020/12/15 12:35:53;;;;;;;15.20;14.00;;;6.70;78.70;;;;;;4997537;29;20078;-77
2020/12/15 12:38:25;;;;;;;14.70;13.60;;;6.80;78.90;;;;;;4994922;29;20874;-78
2020/12/15 12:40:56;;;;;;;15.18;13.98;;;6.90;78.40;;;;;;4998169;29;20046;-77
2020/12/15 12:43:27;;;;;;;14.52;13.32;;;6.90;77.90;;;;;;4999796;29;20045;-79
2020/12/15 12:45:59;;;;;;;14.68;13.48;;;6.90;78.00;;;;;;5000091;29;20113;-78
2020/12/15 12:48:31;;;;;;;14.63;13.43;;;6.90;78.40;;;;;;4998837;29;20164;-79
2020/12/15 12:51:03;;;;;;;14.73;13.43;;;6.90;78.30;;;;;;4999156;29;20057;-79
2020/12/15 12:53:35;;;;;;;14.07;12.98;;;6.90;78.20;;;;;;5000764;29;20238;-79
2020/12/15 12:56:06;;;;;;;14.00;12.90;;;7.00;78.70;;;;;;4999600;29;20085;-78
2020/12/15 12:58:38;;;;;;;14.90;13.70;;;7.00;79.10;;;;;;4999285;29;20101;-76
2020/12/15 13:01:10;;;;;;;14.85;13.63;;;7.10;79.00;;;;;;4999553;29;20514;-76
2020/12/15 13:03:41;;;;;;;14.52;13.43;;;7.10;78.00;;;;;;5000184;29;20530;-80
2020/12/15 13:06:13;;;;;;;15.10;13.90;;;7.10;77.60;;;;;;5003614;29;20139;-76
2020/12/15 13:08:44;;;;;;;14.30;13.10;;;7.20;78.40;;;;;;5001740;29;20526;-77
2020/12/15 13:11:27;;;;;;;13.90;12.90;;;7.20;78.10;;;;;;5001800;29;20042;-77
2020/12/15 13:13:59;;;;;;;14.52;13.43;;;7.20;77.90;;;;;;5003998;29;20585;-76
2020/12/15 13:16:30;;;;;;;14.20;12.90;;;7.30;78.50;;;;;;5001531;29;20521;-76
2020/12/15 13:19:05;;;;;;;15.73;14.43;;;7.30;78.10;;;;;;5001510;29;20100;-78